Flight Track Log - Related Links

Times and Time Zones

All times are in EDT time to prevent confusion due to time zone crossing. See the AAL1068 flight status page for this flight to view local times or setup timezone preferences in your user account.

Time Position Orientation Groundspeed Altitude Reporting Facility
EDT Latitude Longitude Course Direction KTS MPH feet Rate Location/Type
Wed 09:53:39 PM 41.9990 -87.8950 48° Northeast 153 176 1,200  Level FlightAware ADS-B
Wed 09:54:04 PM 42.0090 -87.8780 52° Northeast 140 161 2,600 2,571 Climbing FlightAware ADS-B
Wed 09:54:14 PM 42.0110 -87.8700 71° East 155 178 2,700 800 Climbing FlightAware ADS-B
Wed 09:54:34 PM 42.0030 -87.8510 120° Southeast 197 227 3,000 1,029 Climbing FlightAware ADS-B
Wed 09:54:49 PM 41.9890 -87.8430 157° South 231 266 3,300 1,350 Climbing FlightAware ADS-B
Wed 09:55:14 PM 41.9580 -87.8440 181° South 263 303 3,900 1,745 Climbing FlightAware ADS-B
Wed 09:55:44 PM 41.9240 -87.8460 183° South 277 319 4,900 1,309 Climbing FlightAware ADS-B
Wed 09:56:09 PM 41.8900 -87.8450 179° South 271 312 5,100 218 Climbing FlightAware ADS-B
Wed 09:56:39 PM 41.8540 -87.8560 193° South 269 310 5,100 700 Level FlightAware ADS-B
Wed 09:57:09 PM 41.8160 -87.8690 194° South 279 321 5,800 2,182 Climbing FlightAware ADS-B
Wed 09:57:34 PM 41.7890 -87.8790 195° South 266 306 7,100 3,164 Climbing FlightAware ADS-B
Wed 09:58:04 PM 41.7550 -87.8940 198° South 252 290 8,700 2,836 Climbing FlightAware ADS-B
Wed 09:58:29 PM 41.7240 -87.9060 196° South 265 305 9,700 2,486 Climbing FlightAware ADS-B
Wed 09:59:14 PM 41.6700 -87.9270 196° South 282 325 11,600 2,753 Climbing FlightAware ADS-B
Wed 09:59:54 PM 41.6200 -87.9460 196° South 279 321 13,600 3,055 Climbing FlightAware ADS-B
Wed 10:00:09 PM 41.6000 -87.9500 189° South 281 323 14,400 2,945 Climbing FlightAware ADS-B
Wed 10:00:49 PM 41.5510 -87.9410 172° South 282 325 16,300 2,753 Climbing FlightAware ADS-B
Wed 10:01:34 PM 41.4880 -87.9250 169° South 291 335 18,300 2,400 Climbing FlightAware ADS-B
Wed 10:02:14 PM 41.4350 -87.9120 170° South 301 346 19,700 1,575 Climbing FlightAware ADS-B
Wed 10:02:54 PM 41.3760 -87.8970 169° South 330 380 20,400 1,059 Climbing FlightAware ADS-B
Wed 10:03:39 PM 41.3070 -87.8790 169° South 365 420 21,200 1,300 Climbing FlightAware ADS-B
Wed 10:03:54 PM 41.2800 -87.8670 162° South 379 436 21,700 1,920 Climbing FlightAware ADS-B
Wed 10:04:04 PM 41.2650 -87.8530 145° Southeast 393 452 22,000 2,040 Climbing FlightAware ADS-B
Wed 10:04:44 PM 41.2200 -87.7770 128° Southeast 406 467 23,400 1,976 Climbing FlightAware ADS-B
Wed 10:05:29 PM 41.1700 -87.6860 126° Southeast 413 475 24,800 1,733 Climbing FlightAware ADS-B
Wed 10:06:14 PM 41.1190 -87.5940 126° Southeast 421 484 26,000 1,835 Climbing FlightAware ADS-B
Wed 10:06:54 PM 41.0720 -87.5080 126° Southeast 421 484 27,400 2,025 Climbing FlightAware ADS-B
Wed 10:07:34 PM 41.0270 -87.4230 125° Southeast 416 479 28,700 1,855 Climbing FlightAware ADS-B
Wed 10:07:49 PM 41.0050 -87.3980 139° Southeast 393 452 29,100 1,200 Climbing FlightAware ADS-B
Wed 10:08:34 PM 40.9300 -87.3700 164° South 388 447 29,900 918 Climbing FlightAware ADS-B
Wed 10:09:14 PM 40.8590 -87.3490 167° South 404 465 30,400 776 Climbing FlightAware ADS-B
Wed 10:09:59 PM 40.7790 -87.3240 167° South 412 474 31,000 840 Climbing FlightAware ADS-B
Wed 10:10:54 PM 40.6750 -87.2920 167° South 422 486 31,800 1,080 Climbing FlightAware ADS-B
Wed 10:11:39 PM 40.5870 -87.2650 167° South 426 490 32,800 1,133 Climbing FlightAware ADS-B
Wed 10:12:24 PM 40.5070 -87.2410 167° South 429 494 33,500 1,129 Climbing FlightAware ADS-B
Wed 10:13:04 PM 40.4260 -87.2170 167° South 427 491 34,400 1,200 Climbing FlightAware ADS-B
Wed 10:13:44 PM 40.3470 -87.1930 167° South 429 494 35,100 821 Climbing FlightAware ADS-B
Wed 10:14:39 PM 40.2420 -87.1620 167° South 433 498 35,700 780 Climbing FlightAware ADS-B
Wed 10:15:24 PM 40.1510 -87.1340 167° South 433 498 36,400 780 Climbing FlightAware ADS-B
Wed 10:16:19 PM 40.0470 -87.1030 167° South 431 496 37,000 360 Climbing FlightAware ADS-B
Wed 10:17:04 PM 39.9630 -87.0780 167° South 426 490 37,000  Level FlightAware ADS-B
Wed 10:17:44 PM 39.8800 -87.0540 167° South 421 484 37,000  Level FlightAware ADS-B
Wed 10:18:24 PM 39.8020 -87.0300 167° South 422 486 37,000  Level FlightAware ADS-B
Wed 10:19:09 PM 39.7230 -87.0070 167° South 423 487 37,000  Level FlightAware ADS-B
Wed 10:19:49 PM 39.6430 -86.9830 167° South 423 487 37,000  Level FlightAware ADS-B
Wed 10:20:29 PM 39.5660 -86.9610 168° South 423 487 37,000  Level FlightAware ADS-B
Wed 10:21:14 PM 39.4780 -86.9350 167° South 426 490 37,000  Level FlightAware ADS-B
Wed 10:21:54 PM 39.4010 -86.9120 167° South 432 497 37,000  Level FlightAware ADS-B
Wed 10:22:39 PM 39.3140 -86.8870 167° South 434 499 37,000  Level FlightAware ADS-B
Wed 10:23:04 PM 39.2620 -86.8720 167° South 433 498 37,000  Level FlightAware ADS-B
Wed 10:23:54 PM 39.1650 -86.8430 167° South 435 501 37,000  Level FlightAware ADS-B
Wed 10:24:34 PM 39.0870 -86.8210 168° South 436 502 37,000  Level FlightAware ADS-B
Wed 10:25:14 PM 39.0080 -86.7980 167° South 437 503 37,000  Level FlightAware ADS-B
Wed 10:25:59 PM 38.9220 -86.7730 167° South 441 507 37,000  Level FlightAware ADS-B
Wed 10:26:39 PM 38.8390 -86.7500 168° South 444 511 37,000  Level FlightAware ADS-B
Wed 10:27:19 PM 38.7620 -86.7270 167° South 444 511 37,000  Level FlightAware ADS-B
Wed 10:28:04 PM 38.6680 -86.7000 167° South 447 514 37,000  Level FlightAware ADS-B
Wed 10:28:44 PM 38.5860 -86.6770 168° South 448 516 37,000  Level FlightAware ADS-B
Wed 10:29:29 PM 38.4980 -86.6510 167° South 451 519 37,000  Level FlightAware ADS-B
Wed 10:30:09 PM 38.4160 -86.6280 168° South 452 520 37,000  Level FlightAware ADS-B
Wed 10:30:49 PM 38.3330 -86.6050 168° South 453 521 37,000  Level FlightAware ADS-B
Wed 10:31:34 PM 38.2440 -86.5800 168° South 451 519 37,000  Level FlightAware ADS-B
Wed 10:32:14 PM 38.1610 -86.5560 167° South 447 514 37,000  Level FlightAware ADS-B
Wed 10:32:59 PM 38.0680 -86.5300 168° South 443 510 37,000  Level FlightAware ADS-B
Wed 10:33:39 PM 37.9900 -86.5080 167° South 448 516 37,000  Level FlightAware ADS-B
Wed 10:34:24 PM 37.8980 -86.4820 167° South 454 522 37,000  Level FlightAware ADS-B
Wed 10:35:04 PM 37.8150 -86.4590 168° South 457 526 37,000  Level FlightAware ADS-B
Wed 10:35:44 PM 37.7320 -86.4360 168° South 461 531 37,000  Level FlightAware ADS-B
Wed 10:36:29 PM 37.6360 -86.4090 167° South 460 529 37,000  Level FlightAware ADS-B
Wed 10:37:09 PM 37.5540 -86.3860 167° South 458 527 37,000  Level FlightAware ADS-B
Wed 10:37:49 PM 37.4770 -86.3650 168° South 456 525 37,000  Level FlightAware ADS-B
Wed 10:38:34 PM 37.3810 -86.3380 167° South 454 522 37,000  Level FlightAware ADS-B
Wed 10:39:14 PM 37.2980 -86.3150 168° South 453 521 37,000  Level FlightAware ADS-B
Wed 10:39:59 PM 37.2050 -86.2900 168° South 453 521 37,000  Level FlightAware ADS-B
Wed 10:40:23 PM 37.1527 -86.2755 168° South 452 520 37,000  Level FlightAware ADS-B
Wed 10:40:54 PM 37.0895 -86.2582 168° South 450 518 37,000  Level FlightAware ADS-B
Wed 10:41:24 PM 37.0284 -86.2414 168° South 450 518 37,000  Level FlightAware ADS-B
Wed 10:41:56 PM 36.9641 -86.2237 168° South 449 517 37,000  Level FlightAware ADS-B
Wed 10:43:07 PM 36.8191 -86.1841 168° South 448 516 37,000  Level FlightAware ADS-B
Wed 10:43:38 PM 36.7567 -86.1671 168° South 446 513 37,000  Level FlightAware ADS-B
Wed 10:44:08 PM 36.6961 -86.1508 168° South 445 512 37,000  Level FlightAware ADS-B
Wed 10:44:29 PM 36.6547 -86.1396 168° South 444 511 37,000  Level FlightAware ADS-B
Wed 10:44:55 PM 36.6012 -86.1252 168° South 445 512 37,000  Level FlightAware ADS-B
Wed 10:45:26 PM 36.5398 -86.1086 168° South 444 511 37,000  Level FlightAware ADS-B
Wed 10:45:56 PM 36.4794 -86.0920 168° South 446 513 37,000  Level FlightAware ADS-B
Wed 10:46:59 PM 36.3570 -86.0590 168° South 447 514 37,000  Level FlightAware ADS-B
Wed 10:47:20 PM 36.3089 -86.0464 168° South 447 514 37,000  Level FlightAware ADS-B
Wed 10:47:50 PM 36.2473 -86.0300 168° South 456 525 37,000  Level FlightAware ADS-B
Wed 10:48:21 PM 36.1844 -86.0130 168° South 460 529 37,000  Level FlightAware ADS-B
Wed 10:48:51 PM 36.1210 -85.9960 168° South 464 534 37,000  Level FlightAware ADS-B
Wed 10:49:21 PM 36.0571 -85.9789 168° South 468 539 37,000  Level FlightAware ADS-B
Wed 10:50:16 PM 35.9416 -85.9480 168° South 470 541 37,000  Level FlightAware ADS-B
Wed 10:50:54 PM 35.8600 -85.9266 168° South 472 543 37,000  Level FlightAware ADS-B
Wed 10:51:24 PM 35.7959 -85.9096 168° South 470 541 37,000  Level FlightAware ADS-B
Wed 10:51:55 PM 35.7294 -85.8920 168° South 467 537 37,000  Level FlightAware ADS-B
Wed 10:52:26 PM 35.6655 -85.8750 168° South 466 536 37,000  Level FlightAware ADS-B
Wed 10:52:56 PM 35.6019 -85.8581 168° South 463 533 37,000  Level FlightAware ADS-B
Wed 10:53:27 PM 35.5360 -85.8409 168° South 460 529 37,000  Level FlightAware ADS-B
Wed 10:53:58 PM 35.4716 -85.8240 168° South 458 527 37,000 -286 Level FlightAware ADS-B
Wed 10:54:30 PM 35.4056 -85.8067 168° South 460 529 36,700 -952 Descending FlightAware ADS-B
Wed 10:55:01 PM 35.3417 -85.7901 168° South 468 539 36,000 -1,258 Descending FlightAware ADS-B
Wed 10:55:32 PM 35.2746 -85.7725 168° South 473 544 35,400 -871 Descending FlightAware ADS-B
Wed 10:56:03 PM 35.2076 -85.7550 168° South 473 544 35,100 -393 Descending FlightAware ADS-B
Wed 10:56:33 PM 35.1433 -85.7381 168° South 475 547 35,000 -98 Descending FlightAware ADS-B
Wed 10:57:04 PM 35.0782 -85.7212 168° South 474 545 35,000  Level FlightAware ADS-B
Wed 10:57:34 PM 35.0132 -85.7043 168° South 473 544 35,000  Level FlightAware ADS-B
Wed 10:58:07 PM 34.9419 -85.6858 168° South 472 543 35,000  Level FlightAware ADS-B
Wed 10:58:40 PM 34.8712 -85.6675 168° South 472 543 35,000 -364 Level FlightAware ADS-B
Wed 10:59:13 PM 34.8024 -85.6495 168° South 475 547 34,600 -952 Descending FlightAware ADS-B
Wed 10:59:43 PM 34.7366 -85.6329 168° South 481 554 34,000 -1,000 Descending FlightAware ADS-B
Wed 11:00:13 PM 34.6705 -85.6161 168° South 484 557 33,600 -885 Descending FlightAware ADS-B
Wed 11:00:44 PM 34.6039 -85.5991 168° South 479 551 33,100 -984 Descending FlightAware ADS-B
Wed 11:01:14 PM 34.5394 -85.5821 168° South 471 542 32,600 -1,200 Descending FlightAware ADS-B
Wed 11:01:44 PM 34.4756 -85.5654 168° South 466 536 31,900 -1,391 Descending FlightAware ADS-B
Wed 11:02:23 PM 34.3927 -85.5440 168° South 462 532 31,000 -720 Descending FlightAware ADS-B
Wed 11:02:59 PM 34.3193 -85.5255 168° South 460 529 31,000  Level FlightAware ADS-B
Wed 11:03:29 PM 34.2560 -85.5096 168° South 459 528 31,000  Level FlightAware ADS-B
Wed 11:04:00 PM 34.1924 -85.4934 168° South 461 531 31,000  Level FlightAware ADS-B
Wed 11:04:38 PM 34.1124 -85.4730 168° South 465 535 31,000  Level FlightAware ADS-B
Wed 11:05:17 PM 34.0284 -85.4517 168° South 468 539 31,000  Level FlightAware ADS-B
Wed 11:05:49 PM 33.9618 -85.4348 168° South 470 541 31,000  Level FlightAware ADS-B
Wed 11:06:54 PM 33.8340 -85.4030 168° South 473 544 31,000  Level FlightAware ADS-B
Wed 11:07:29 PM 33.7620 -85.3840 168° South 474 545 31,000  Level FlightAware ADS-B
Wed 11:08:19 PM 33.6480 -85.3560 168° South 464 534 31,000  Level FlightAware ADS-B
Wed 11:08:59 PM 33.5640 -85.3340 168° South 462 532 31,000  Level FlightAware ADS-B
Wed 11:09:44 PM 33.4700 -85.3110 168° South 461 531 31,000  Level FlightAware ADS-B
Wed 11:10:24 PM 33.3920 -85.2920 169° South 459 528 31,000  Level FlightAware ADS-B
Wed 11:11:09 PM 33.2890 -85.2660 168° South 458 527 31,000  Level FlightAware ADS-B
Wed 11:11:49 PM 33.2050 -85.2450 168° South 457 526 31,000  Level FlightAware ADS-B
Wed 11:12:29 PM 33.1220 -85.2240 168° South 463 533 31,000  Level FlightAware ADS-B
Wed 11:13:14 PM 33.0280 -85.1990 167° South 466 536 31,000  Level FlightAware ADS-B
Wed 11:13:54 PM 32.9460 -85.1710 164° South 467 537 31,000  Level FlightAware ADS-B
Wed 11:14:49 PM 32.8320 -85.1320 164° South 468 539 31,000  Level FlightAware ADS-B
Wed 11:15:34 PM 32.7320 -85.0980 164° South 469 540 31,000  Level FlightAware ADS-B
Wed 11:16:14 PM 32.6610 -85.0740 164° South 469 540 31,000  Level FlightAware ADS-B
Wed 11:16:54 PM 32.5900 -85.0490 163° South 469 540 31,000  Level FlightAware ADS-B
Wed 11:17:34 PM 32.5190 -85.0250 164° South 469 540 31,000  Level FlightAware ADS-B
Wed 11:18:14 PM 32.4480 -85.0010 164° South 469 540 31,000  Level FlightAware ADS-B
Wed 11:18:54 PM 32.3230 -84.9590 164° South 469 540 31,000  Level FlightAware ADS-B
Wed 11:19:39 PM 32.2360 -84.9280 163° South 469 540 31,000  Level FlightAware ADS-B
Wed 11:20:24 PM 32.1390 -84.8970 165° South 31,000  Level FlightAware ADS-B
Wed 11:20:40 PM 32.1028 -84.8839 165° South 470 541 31,000  Level Jacksonville Center
Wed 11:21:40 PM 31.9783 -84.8422 164° South 470 541 31,000  Level Jacksonville Center
Wed 11:22:40 PM 31.8514 -84.8028 165° South 470 541 31,000  Level Jacksonville Center
Wed 11:23:40 PM 31.7247 -84.7611 164° South 470 541 31,000  Level Jacksonville Center
Wed 11:29:04 PM 31.0390 -84.5310 164° South 479 551 31,000  Level FlightAware ADS-B
Wed 11:33:54 PM 30.4450 -84.2310 156° South 490 564 31,000  Level FlightAware ADS-B
Wed 11:35:54 PM 30.1970 -84.0790 152° Southeast 492 566 31,000  Level FlightAware ADS-B
Wed 11:36:34 PM 30.1130 -84.0280 152° Southeast 494 568 31,000  Level FlightAware ADS-B
Wed 11:37:19 PM 30.0220 -83.9720 152° Southeast 494 568 31,000  Level FlightAware ADS-B
Wed 11:37:59 PM 29.9370 -83.9210 153° Southeast 495 570 31,000  Level FlightAware ADS-B
Wed 11:38:39 PM 29.8570 -83.8720 152° Southeast 489 563 31,000  Level FlightAware ADS-B
Wed 11:39:24 PM 29.7650 -83.8170 153° Southeast 489 563 31,000  Level FlightAware ADS-B
Wed 11:40:04 PM 29.6820 -83.7660 152° Southeast 489 563 31,000  Level FlightAware ADS-B
Wed 11:40:44 PM 29.6010 -83.7180 153° Southeast 490 564 31,000  Level FlightAware ADS-B
Wed 11:41:29 PM 29.5090 -83.6620 152° Southeast 490 564 31,000  Level FlightAware ADS-B
Wed 11:42:09 PM 29.4280 -83.6130 152° Southeast 491 565 31,000  Level FlightAware ADS-B
Wed 11:42:54 PM 29.3340 -83.5570 153° Southeast 492 566 31,000  Level FlightAware ADS-B
Wed 11:43:49 PM 29.2200 -83.4890 152° Southeast 491 565 31,000  Level FlightAware ADS-B
Wed 11:44:29 PM 29.1390 -83.4410 153° Southeast 492 566 31,000  Level FlightAware ADS-B
Wed 11:45:24 PM 29.0270 -83.3740 152° Southeast 493 567 31,000  Level FlightAware ADS-B
Wed 11:46:49 PM 28.8510 -83.2700 153° Southeast 494 568 31,000  Level FlightAware ADS-B
Wed 11:47:59 PM 28.7060 -83.1840 153° Southeast 505 581 31,000  Level FlightAware ADS-B
Wed 11:48:59 PM 28.5790 -83.1100 153° Southeast 505 581 31,000  Level FlightAware ADS-B
Wed 11:50:19 PM 28.4160 -83.0140 153° Southeast 506 582 31,000  Level FlightAware ADS-B
Wed 11:51:29 PM 28.2690 -82.9280 153° Southeast 505 581 31,000  Level FlightAware ADS-B
Wed 11:52:39 PM 28.1240 -82.8430 153° Southeast 505 581 31,000  Level FlightAware ADS-B
Wed 11:54:04 PM 27.9470 -82.7420 153° Southeast 494 568 31,000  Level FlightAware ADS-B
Wed 11:55:14 PM 27.7930 -82.6800 160° South 497 572 31,000  Level FlightAware ADS-B
Wed 11:56:24 PM 27.6640 -82.5750 144° Southeast 503 579 31,000  Level FlightAware ADS-B
Wed 11:57:09 PM 27.5770 -82.4940 140° Southeast 503 579 31,000  Level FlightAware ADS-B
Wed 11:58:04 PM 27.4780 -82.4020 140° Southeast 509 586 31,000  Level FlightAware ADS-B
Wed 11:58:44 PM 27.4050 -82.3350 141° Southeast 509 586 31,000  Level FlightAware ADS-B
Wed 11:59:29 PM 27.3230 -82.2600 141° Southeast 508 585 31,000  Level FlightAware ADS-B
Thu 12:00:09 AM 27.2520 -82.1950 141° Southeast 508 585 31,000  Level FlightAware ADS-B
Thu 12:00:49 AM 27.1790 -82.1270 140° Southeast 508 585 31,000  Level FlightAware ADS-B
Thu 12:01:34 AM 27.0950 -82.0510 141° Southeast 508 585 31,000  Level FlightAware ADS-B
Thu 12:02:14 AM 27.0210 -81.9830 141° Southeast 508 585 31,000 -212 Level FlightAware ADS-B
Thu 12:02:59 AM 26.9400 -81.9090 141° Southeast 505 581 30,700 -1,129 Descending FlightAware ADS-B
Thu 12:03:39 AM 26.8690 -81.8450 141° Southeast 506 582 29,400 -2,274 Descending FlightAware ADS-B
Thu 12:04:34 AM 26.7680 -81.7530 141° Southeast 491 565 27,100 -2,400 Descending FlightAware ADS-B
Thu 12:05:19 AM 26.6900 -81.6820 141° Southeast 481 554 25,400 -1,380 Descending FlightAware ADS-B
Thu 12:06:14 AM 26.6060 -81.6050 141° Southeast 469 540 24,800 -379 Descending FlightAware ADS-B
Thu 12:06:54 AM 26.5490 -81.5520 140° Southeast 469 540 24,800  Level FlightAware ADS-B
Thu 12:07:34 AM 26.4930 -81.4990 140° Southeast 469 540 24,800  Level FlightAware ADS-B
Thu 12:08:14 AM 26.4360 -81.4460 140° Southeast 469 540 24,800 -5,224 Level FlightAware ADS-B
Thu 12:08:59 AM 26.3480 -81.3740 144° Southeast 403 464 17,400 -5,061 Descending FlightAware ADS-B
Thu 12:10:09 AM 26.2530 -81.2890 141° Southeast 377 434 15,100 -2,057 Descending FlightAware ADS-B
Thu 12:10:44 AM 26.2040 -81.2450 141° Southeast 369 425 13,800 -1,906 Descending FlightAware ADS-B
Thu 12:11:34 AM 26.1370 -81.1850 141° Southeast 355 409 12,400 -1,553 Descending FlightAware ADS-B
Thu 12:12:09 AM 26.0900 -81.1440 142° Southeast 355 409 11,600 -1,364 Descending FlightAware ADS-B
Thu 12:13:24 AM 25.9970 -81.0600 141° Southeast 350 403 9,900 -971 Descending FlightAware ADS-B
Thu 12:13:54 AM 25.9600 -81.0280 142° Southeast 338 389 9,900  Level FlightAware ADS-B
Thu 12:14:34 AM 25.9090 -80.9820 141° Southeast 339 390 9,900  Level FlightAware ADS-B
Thu 12:15:44 AM 25.8680 -80.8760 113° Southeast 313 360 9,900 -729 Level FlightAware ADS-B
Thu 12:16:54 AM 25.8490 -80.7660 101° East 284 327 8,200 -1,457 Descending FlightAware ADS-B
Thu 12:19:14 AM 25.8150 -80.5870 102° East 240 276 4,800 -1,387 Descending FlightAware ADS-B
Thu 12:20:39 AM 25.7970 -80.4880 101° East 199 229 3,000 -1,033 Descending FlightAware ADS-B
Thu 12:22:49 AM 25.7980 -80.3730 89° East 138 159 1,100 -877 Descending FlightAware ADS-B
Thu 12:24:24 AM 25.8010 -80.3050 87° East 144 166 -695 Descending FlightAware ADS-B
Thu 12:24:39 AM 25.8010 -80.2960 90° East 138 159  Level FlightAware ADS-B

Login

Don't have an account? Register now (free) for customized features, flight alerts, and more!